sensor_id;sensor_type;location;lat;lon;timestamp;P1;durP1;ratioP1;P2;durP2;ratioP2
7213;SDS011;3648;50.614;13.830;2023-07-28T00:00:57;1.87;;;1.40;;
7213;SDS011;3648;50.614;13.830;2023-07-28T00:03:26;1.37;;;1.20;;
7213;SDS011;3648;50.614;13.830;2023-07-28T00:05:52;2.90;;;1.33;;
7213;SDS011;3648;50.614;13.830;2023-07-28T00:08:20;1.50;;;1.40;;
7213;SDS011;3648;50.614;13.830;2023-07-28T00:10:46;5.20;;;1.47;;
7213;SDS011;3648;50.614;13.830;2023-07-28T00:13:13;2.03;;;1.47;;
7213;SDS011;3648;50.614;13.830;2023-07-28T00:15:40;1.73;;;1.50;;
7213;SDS011;3648;50.614;13.830;2023-07-28T00:18:07;3.47;;;1.50;;
7213;SDS011;3648;50.614;13.830;2023-07-28T00:20:36;2.73;;;1.60;;
7213;SDS011;3648;50.614;13.830;2023-07-28T00:23:02;2.33;;;1.33;;
7213;SDS011;3648;50.614;13.830;2023-07-28T00:25:29;2.00;;;1.50;;
7213;SDS011;3648;50.614;13.830;2023-07-28T00:27:56;2.80;;;1.77;;
7213;SDS011;3648;50.614;13.830;2023-07-28T00:30:23;2.30;;;1.70;;
7213;SDS011;3648;50.614;13.830;2023-07-28T00:32:51;2.43;;;1.80;;
7213;SDS011;3648;50.614;13.830;2023-07-28T00:35:18;1.90;;;1.47;;
7213;SDS011;3648;50.614;13.830;2023-07-28T00:37:47;1.33;;;1.23;;
7213;SDS011;3648;50.614;13.830;2023-07-28T00:40:14;1.40;;;1.30;;
7213;SDS011;3648;50.614;13.830;2023-07-28T00:42:41;1.47;;;1.30;;
7213;SDS011;3648;50.614;13.830;2023-07-28T00:45:08;2.00;;;1.60;;
7213;SDS011;3648;50.614;13.830;2023-07-28T00:47:35;2.90;;;1.50;;
7213;SDS011;3648;50.614;13.830;2023-07-28T00:50:02;5.80;;;2.30;;
7213;SDS011;3648;50.614;13.830;2023-07-28T00:52:31;1.70;;;1.30;;
7213;SDS011;3648;50.614;13.830;2023-07-28T00:55:00;3.67;;;1.90;;
7213;SDS011;3648;50.614;13.830;2023-07-28T00:57:27;3.57;;;1.43;;
7213;SDS011;3648;50.614;13.830;2023-07-28T00:59:54;1.90;;;1.40;;
7213;SDS011;3648;50.614;13.830;2023-07-28T01:02:21;3.50;;;1.63;;
7213;SDS011;3648;50.614;13.830;2023-07-28T01:04:48;3.77;;;1.60;;
7213;SDS011;3648;50.614;13.830;2023-07-28T01:07:17;2.03;;;1.70;;
7213;SDS011;3648;50.614;13.830;2023-07-28T01:09:50;3.40;;;1.43;;
7213;SDS011;3648;50.614;13.830;2023-07-28T01:12:28;2.63;;;1.47;;
7213;SDS011;3648;50.614;13.830;2023-07-28T01:14:55;2.53;;;1.37;;
7213;SDS011;3648;50.614;13.830;2023-07-28T01:17:22;1.93;;;1.73;;
7213;SDS011;3648;50.614;13.830;2023-07-28T01:19:50;3.23;;;1.60;;
7213;SDS011;3648;50.614;13.830;2023-07-28T01:22:22;1.80;;;1.60;;
7213;SDS011;3648;50.614;13.830;2023-07-28T01:25:06;2.60;;;1.50;;
7213;SDS011;3648;50.614;13.830;2023-07-28T01:27:43;2.03;;;1.73;;
7213;SDS011;3648;50.614;13.830;2023-07-28T01:30:10;1.83;;;1.50;;
7213;SDS011;3648;50.614;13.830;2023-07-28T01:32:38;3.77;;;1.83;;
7213;SDS011;3648;50.614;13.830;2023-07-28T01:35:05;2.03;;;1.70;;
7213;SDS011;3648;50.614;13.830;2023-07-28T01:37:33;2.00;;;1.60;;
7213;SDS011;3648;50.614;13.830;2023-07-28T01:39:59;2.37;;;1.83;;
7213;SDS011;3648;50.614;13.830;2023-07-28T01:42:27;2.53;;;1.93;;
7213;SDS011;3648;50.614;13.830;2023-07-28T01:44:55;2.63;;;1.70;;
7213;SDS011;3648;50.614;13.830;2023-07-28T01:47:22;4.20;;;2.03;;
7213;SDS011;3648;50.614;13.830;2023-07-28T01:49:50;2.30;;;1.80;;
7213;SDS011;3648;50.614;13.830;2023-07-28T01:52:17;3.30;;;1.70;;
7213;SDS011;3648;50.614;13.830;2023-07-28T01:54:44;2.77;;;1.70;;
7213;SDS011;3648;50.614;13.830;2023-07-28T01:57:11;2.23;;;2.03;;
7213;SDS011;3648;50.614;13.830;2023-07-28T01:59:38;2.20;;;2.00;;
7213;SDS011;3648;50.614;13.830;2023-07-28T02:02:07;2.13;;;1.93;;
7213;SDS011;3648;50.614;13.830;2023-07-28T02:04:33;2.30;;;1.67;;
7213;SDS011;3648;50.614;13.830;2023-07-28T02:07:00;2.83;;;1.93;;
7213;SDS011;3648;50.614;13.830;2023-07-28T02:09:27;2.70;;;2.00;;
7213;SDS011;3648;50.614;13.830;2023-07-28T02:11:54;2.40;;;1.97;;
7213;SDS011;3648;50.614;13.830;2023-07-28T02:14:21;2.07;;;1.73;;
7213;SDS011;3648;50.614;13.830;2023-07-28T02:16:48;2.30;;;1.87;;
7213;SDS011;3648;50.614;13.830;2023-07-28T02:19:17;2.97;;;2.00;;
7213;SDS011;3648;50.614;13.830;2023-07-28T02:21:44;2.50;;;1.93;;
7213;SDS011;3648;50.614;13.830;2023-07-28T02:24:11;3.60;;;1.97;;
7213;SDS011;3648;50.614;13.830;2023-07-28T02:26:37;2.50;;;2.00;;
7213;SDS011;3648;50.614;13.830;2023-07-28T02:29:04;2.33;;;2.13;;
7213;SDS011;3648;50.614;13.830;2023-07-28T02:31:31;2.33;;;2.13;;
7213;SDS011;3648;50.614;13.830;2023-07-28T02:33:58;2.37;;;2.10;;
7213;SDS011;3648;50.614;13.830;2023-07-28T02:36:26;3.80;;;2.10;;
7213;SDS011;3648;50.614;13.830;2023-07-28T02:38:53;2.50;;;2.30;;
7213;SDS011;3648;50.614;13.830;2023-07-28T02:41:20;3.03;;;2.50;;
7213;SDS011;3648;50.614;13.830;2023-07-28T02:43:47;3.13;;;1.90;;
7213;SDS011;3648;50.614;13.830;2023-07-28T02:46:14;3.70;;;2.20;;
7213;SDS011;3648;50.614;13.830;2023-07-28T02:48:41;3.93;;;2.30;;
7213;SDS011;3648;50.614;13.830;2023-07-28T02:51:08;2.70;;;2.50;;
7213;SDS011;3648;50.614;13.830;2023-07-28T02:53:36;2.93;;;2.53;;
7213;SDS011;3648;50.614;13.830;2023-07-28T02:56:03;4.57;;;2.57;;
7213;SDS011;3648;50.614;13.830;2023-07-28T02:58:30;5.00;;;2.50;;
7213;SDS011;3648;50.614;13.830;2023-07-28T03:00:56;2.17;;;2.03;;
7213;SDS011;3648;50.614;13.830;2023-07-28T03:03:24;3.80;;;2.40;;
7213;SDS011;3648;50.614;13.830;2023-07-28T03:05:51;3.73;;;2.43;;
7213;SDS011;3648;50.614;13.830;2023-07-28T03:08:19;2.83;;;2.40;;
7213;SDS011;3648;50.614;13.830;2023-07-28T03:10:47;3.70;;;2.13;;
7213;SDS011;3648;50.614;13.830;2023-07-28T03:13:14;3.13;;;2.23;;
7213;SDS011;3648;50.614;13.830;2023-07-28T03:15:41;3.03;;;2.77;;
7213;SDS011;3648;50.614;13.830;2023-07-28T03:18:08;2.93;;;2.10;;
7213;SDS011;3648;50.614;13.830;2023-07-28T03:20:34;3.23;;;2.50;;
7213;SDS011;3648;50.614;13.830;2023-07-28T03:23:01;2.57;;;2.33;;
7213;SDS011;3648;50.614;13.830;2023-07-28T03:25:28;3.77;;;2.37;;
7213;SDS011;3648;50.614;13.830;2023-07-28T03:27:57;2.13;;;1.93;;
7213;SDS011;3648;50.614;13.830;2023-07-28T03:30:24;2.53;;;2.30;;
7213;SDS011;3648;50.614;13.830;2023-07-28T03:32:50;2.40;;;2.20;;
7213;SDS011;3648;50.614;13.830;2023-07-28T03:35:17;2.47;;;2.17;;
7213;SDS011;3648;50.614;13.830;2023-07-28T03:37:44;3.77;;;2.80;;
7213;SDS011;3648;50.614;13.830;2023-07-28T03:40:11;3.60;;;2.50;;
7213;SDS011;3648;50.614;13.830;2023-07-28T03:42:38;2.90;;;2.50;;
7213;SDS011;3648;50.614;13.830;2023-07-28T03:45:07;2.07;;;1.97;;
7213;SDS011;3648;50.614;13.830;2023-07-28T03:47:35;2.80;;;2.50;;
7213;SDS011;3648;50.614;13.830;2023-07-28T03:50:05;2.30;;;2.10;;
7213;SDS011;3648;50.614;13.830;2023-07-28T03:52:32;2.30;;;2.10;;
7213;SDS011;3648;50.614;13.830;2023-07-28T03:54:59;2.57;;;2.37;;
7213;SDS011;3648;50.614;13.830;2023-07-28T03:57:26;2.40;;;2.20;;
7213;SDS011;3648;50.614;13.830;2023-07-28T03:59:53;2.40;;;2.17;;
7213;SDS011;3648;50.614;13.830;2023-07-28T04:02:22;2.40;;;2.20;;
7213;SDS011;3648;50.614;13.830;2023-07-28T04:04:52;3.10;;;2.27;;
7213;SDS011;3648;50.614;13.830;2023-07-28T04:07:20;2.80;;;2.50;;
7213;SDS011;3648;50.614;13.830;2023-07-28T04:09:47;2.30;;;2.10;;
7213;SDS011;3648;50.614;13.830;2023-07-28T04:12:14;2.10;;;1.90;;
7213;SDS011;3648;50.614;13.830;2023-07-28T04:14:41;3.30;;;2.57;;
7213;SDS011;3648;50.614;13.830;2023-07-28T04:17:08;2.17;;;2.00;;
7213;SDS011;3648;50.614;13.830;2023-07-28T04:19:37;2.83;;;2.17;;
7213;SDS011;3648;50.614;13.830;2023-07-28T04:22:05;2.07;;;1.87;;
7213;SDS011;3648;50.614;13.830;2023-07-28T04:24:32;2.40;;;2.20;;
7213;SDS011;3648;50.614;13.830;2023-07-28T04:26:59;3.03;;;2.20;;
7213;SDS011;3648;50.614;13.830;2023-07-28T04:29:26;3.20;;;2.60;;
7213;SDS011;3648;50.614;13.830;2023-07-28T04:31:53;2.97;;;2.27;;
7213;SDS011;3648;50.614;13.830;2023-07-28T04:34:20;2.87;;;2.67;;
7213;SDS011;3648;50.614;13.830;2023-07-28T04:36:48;3.00;;;2.77;;
7213;SDS011;3648;50.614;13.830;2023-07-28T04:39:15;2.80;;;2.30;;
7213;SDS011;3648;50.614;13.830;2023-07-28T04:41:42;2.40;;;2.20;;
7213;SDS011;3648;50.614;13.830;2023-07-28T04:44:09;3.87;;;2.63;;
7213;SDS011;3648;50.614;13.830;2023-07-28T04:46:36;3.67;;;2.67;;
7213;SDS011;3648;50.614;13.830;2023-07-28T04:49:03;3.37;;;2.30;;
7213;SDS011;3648;50.614;13.830;2023-07-28T04:51:30;2.63;;;2.00;;
7213;SDS011;3648;50.614;13.830;2023-07-28T04:53:59;2.67;;;2.17;;
7213;SDS011;3648;50.614;13.830;2023-07-28T04:56:26;3.77;;;2.63;;
7213;SDS011;3648;50.614;13.830;2023-07-28T04:58:53;2.70;;;2.50;;
7213;SDS011;3648;50.614;13.830;2023-07-28T05:01:19;3.00;;;2.43;;
7213;SDS011;3648;50.614;13.830;2023-07-28T05:03:46;2.43;;;2.10;;
7213;SDS011;3648;50.614;13.830;2023-07-28T05:06:13;2.53;;;2.10;;
7213;SDS011;3648;50.614;13.830;2023-07-28T05:08:40;4.00;;;2.87;;
7213;SDS011;3648;50.614;13.830;2023-07-28T05:11:09;3.30;;;3.00;;
7213;SDS011;3648;50.614;13.830;2023-07-28T05:13:36;3.03;;;2.20;;
7213;SDS011;3648;50.614;13.830;2023-07-28T05:16:03;2.50;;;2.10;;
7213;SDS011;3648;50.614;13.830;2023-07-28T05:18:30;2.70;;;2.37;;
7213;SDS011;3648;50.614;13.830;2023-07-28T05:20:57;2.67;;;2.40;;
7213;SDS011;3648;50.614;13.830;2023-07-28T05:23:24;2.40;;;2.20;;
7213;SDS011;3648;50.614;13.830;2023-07-28T05:25:51;2.00;;;1.90;;
7213;SDS011;3648;50.614;13.830;2023-07-28T05:28:19;8.70;;;2.80;;
7213;SDS011;3648;50.614;13.830;2023-07-28T05:30:46;3.13;;;2.17;;
7213;SDS011;3648;50.614;13.830;2023-07-28T05:33:13;2.47;;;2.20;;
7213;SDS011;3648;50.614;13.830;2023-07-28T05:35:40;4.10;;;2.73;;
7213;SDS011;3648;50.614;13.830;2023-07-28T05:38:07;3.67;;;2.50;;
7213;SDS011;3648;50.614;13.830;2023-07-28T05:40:34;6.93;;;2.40;;
7213;SDS011;3648;50.614;13.830;2023-07-28T05:43:01;3.10;;;2.10;;
7213;SDS011;3648;50.614;13.830;2023-07-28T05:45:29;3.50;;;2.50;;
7213;SDS011;3648;50.614;13.830;2023-07-28T05:47:56;2.13;;;1.93;;
7213;SDS011;3648;50.614;13.830;2023-07-28T05:50:24;2.47;;;1.80;;
7213;SDS011;3648;50.614;13.830;2023-07-28T05:52:51;2.40;;;1.93;;
7213;SDS011;3648;50.614;13.830;2023-07-28T05:55:18;2.03;;;1.90;;
7213;SDS011;3648;50.614;13.830;2023-07-28T05:57:45;2.40;;;2.20;;
7213;SDS011;3648;50.614;13.830;2023-07-28T06:00:12;3.33;;;2.30;;
7213;SDS011;3648;50.614;13.830;2023-07-28T06:02:40;2.27;;;2.07;;
7213;SDS011;3648;50.614;13.830;2023-07-28T06:05:08;2.37;;;2.17;;
7213;SDS011;3648;50.614;13.830;2023-07-28T06:07:35;3.30;;;1.97;;
7213;SDS011;3648;50.614;13.830;2023-07-28T06:10:02;7.30;;;2.30;;
7213;SDS011;3648;50.614;13.830;2023-07-28T06:12:29;2.67;;;2.20;;
7213;SDS011;3648;50.614;13.830;2023-07-28T06:14:56;2.03;;;1.80;;
7213;SDS011;3648;50.614;13.830;2023-07-28T06:17:23;2.23;;;2.03;;
7213;SDS011;3648;50.614;13.830;2023-07-28T06:19:53;2.37;;;1.90;;
7213;SDS011;3648;50.614;13.830;2023-07-28T06:22:21;2.53;;;1.53;;
7213;SDS011;3648;50.614;13.830;2023-07-28T06:24:48;3.00;;;1.80;;
7213;SDS011;3648;50.614;13.830;2023-07-28T06:27:15;2.17;;;1.63;;
7213;SDS011;3648;50.614;13.830;2023-07-28T06:29:42;1.70;;;1.60;;
7213;SDS011;3648;50.614;13.830;2023-07-28T06:32:09;1.93;;;1.53;;
7213;SDS011;3648;50.614;13.830;2023-07-28T06:34:36;1.63;;;1.30;;
7213;SDS011;3648;50.614;13.830;2023-07-28T06:37:05;1.63;;;1.30;;
7213;SDS011;3648;50.614;13.830;2023-07-28T06:39:32;2.23;;;1.57;;
7213;SDS011;3648;50.614;13.830;2023-07-28T06:41:59;2.13;;;1.67;;
7213;SDS011;3648;50.614;13.830;2023-07-28T06:44:27;1.87;;;1.60;;
7213;SDS011;3648;50.614;13.830;2023-07-28T06:46:54;1.60;;;1.40;;
7213;SDS011;3648;50.614;13.830;2023-07-28T06:49:21;2.43;;;1.60;;
7213;SDS011;3648;50.614;13.830;2023-07-28T06:51:49;2.40;;;2.20;;
7213;SDS011;3648;50.614;13.830;2023-07-28T06:54:18;15.30;;;9.33;;
7213;SDS011;3648;50.614;13.830;2023-07-28T06:56:45;11.87;;;7.67;;
7213;SDS011;3648;50.614;13.830;2023-07-28T06:59:13;10.83;;;7.97;;
7213;SDS011;3648;50.614;13.830;2023-07-28T07:01:40;6.27;;;4.57;;
7213;SDS011;3648;50.614;13.830;2023-07-28T07:04:07;5.53;;;3.93;;
7213;SDS011;3648;50.614;13.830;2023-07-28T07:06:34;11.90;;;9.97;;
7213;SDS011;3648;50.614;13.830;2023-07-28T07:09:01;4.90;;;4.37;;
7213;SDS011;3648;50.614;13.830;2023-07-28T07:11:30;6.20;;;4.70;;
7213;SDS011;3648;50.614;13.830;2023-07-28T07:13:57;4.47;;;3.23;;
7213;SDS011;3648;50.614;13.830;2023-07-28T07:16:24;4.87;;;3.63;;
7213;SDS011;3648;50.614;13.830;2023-07-28T07:18:51;4.37;;;2.63;;
7213;SDS011;3648;50.614;13.830;2023-07-28T07:21:18;2.40;;;2.10;;
7213;SDS011;3648;50.614;13.830;2023-07-28T07:23:45;3.93;;;2.93;;
7213;SDS011;3648;50.614;13.830;2023-07-28T07:26:12;3.30;;;2.80;;
7213;SDS011;3648;50.614;13.830;2023-07-28T07:28:40;2.57;;;2.30;;
7213;SDS011;3648;50.614;13.830;2023-07-28T07:31:11;3.70;;;2.23;;
7213;SDS011;3648;50.614;13.830;2023-07-28T07:33:39;4.57;;;2.30;;
7213;SDS011;3648;50.614;13.830;2023-07-28T07:36:11;2.03;;;1.47;;
7213;SDS011;3648;50.614;13.830;2023-07-28T07:38:38;1.33;;;1.23;;
7213;SDS011;3648;50.614;13.830;2023-07-28T07:41:06;2.20;;;2.00;;
7213;SDS011;3648;50.614;13.830;2023-07-28T07:43:33;3.17;;;1.33;;
7213;SDS011;3648;50.614;13.830;2023-07-28T07:46:01;2.43;;;1.90;;
7213;SDS011;3648;50.614;13.830;2023-07-28T07:48:28;3.43;;;1.70;;
7213;SDS011;3648;50.614;13.830;2023-07-28T07:50:55;3.90;;;1.90;;
7213;SDS011;3648;50.614;13.830;2023-07-28T07:53:22;2.23;;;1.70;;
7213;SDS011;3648;50.614;13.830;2023-07-28T07:55:49;2.10;;;1.63;;
7213;SDS011;3648;50.614;13.830;2023-07-28T07:58:16;3.50;;;1.70;;
7213;SDS011;3648;50.614;13.830;2023-07-28T08:00:43;2.73;;;2.00;;
7213;SDS011;3648;50.614;13.830;2023-07-28T08:03:12;1.87;;;1.30;;
7213;SDS011;3648;50.614;13.830;2023-07-28T08:05:39;1.60;;;1.50;;
7213;SDS011;3648;50.614;13.830;2023-07-28T08:08:06;2.23;;;1.50;;
7213;SDS011;3648;50.614;13.830;2023-07-28T08:10:34;4.13;;;3.30;;
7213;SDS011;3648;50.614;13.830;2023-07-28T08:13:02;5.30;;;4.07;;
7213;SDS011;3648;50.614;13.830;2023-07-28T08:15:30;3.30;;;2.20;;
7213;SDS011;3648;50.614;13.830;2023-07-28T08:17:57;2.27;;;2.00;;
7213;SDS011;3648;50.614;13.830;2023-07-28T08:20:25;1.77;;;1.60;;
7213;SDS011;3648;50.614;13.830;2023-07-28T08:22:53;1.80;;;1.43;;
7213;SDS011;3648;50.614;13.830;2023-07-28T08:25:20;1.43;;;1.33;;
7213;SDS011;3648;50.614;13.830;2023-07-28T08:27:48;1.90;;;1.40;;
7213;SDS011;3648;50.614;13.830;2023-07-28T08:30:15;2.00;;;1.40;;
7213;SDS011;3648;50.614;13.830;2023-07-28T08:32:42;2.27;;;1.70;;
7213;SDS011;3648;50.614;13.830;2023-07-28T08:35:09;5.20;;;1.60;;
7213;SDS011;3648;50.614;13.830;2023-07-28T08:37:38;1.20;;;1.10;;
7213;SDS011;3648;50.614;13.830;2023-07-28T08:40:05;1.20;;;1.00;;
7213;SDS011;3648;50.614;13.830;2023-07-28T08:42:35;1.53;;;1.30;;
7213;SDS011;3648;50.614;13.830;2023-07-28T08:45:03;2.77;;;1.50;;
7213;SDS011;3648;50.614;13.830;2023-07-28T08:47:31;2.73;;;1.50;;
7213;SDS011;3648;50.614;13.830;2023-07-28T08:49:58;2.87;;;1.53;;
7213;SDS011;3648;50.614;13.830;2023-07-28T08:52:26;3.30;;;1.80;;
7213;SDS011;3648;50.614;13.830;2023-07-28T08:54:55;2.40;;;1.70;;
7213;SDS011;3648;50.614;13.830;2023-07-28T08:57:22;2.90;;;1.33;;
7213;SDS011;3648;50.614;13.830;2023-07-28T08:59:49;3.97;;;1.07;;
7213;SDS011;3648;50.614;13.830;2023-07-28T09:02:16;1.77;;;1.17;;
7213;SDS011;3648;50.614;13.830;2023-07-28T09:04:46;3.87;;;1.30;;
7213;SDS011;3648;50.614;13.830;2023-07-28T09:07:14;1.20;;;1.07;;
7213;SDS011;3648;50.614;13.830;2023-07-28T09:09:41;1.17;;;0.90;;
7213;SDS011;3648;50.614;13.830;2023-07-28T09:12:10;1.60;;;1.07;;
7213;SDS011;3648;50.614;13.830;2023-07-28T09:14:37;1.70;;;1.00;;
7213;SDS011;3648;50.614;13.830;2023-07-28T09:17:08;1.20;;;1.10;;
7213;SDS011;3648;50.614;13.830;2023-07-28T09:19:49;1.07;;;0.97;;
7213;SDS011;3648;50.614;13.830;2023-07-28T09:22:17;0.80;;;0.77;;
7213;SDS011;3648;50.614;13.830;2023-07-28T09:24:45;0.70;;;0.70;;
7213;SDS011;3648;50.614;13.830;2023-07-28T09:27:21;0.90;;;0.80;;
7213;SDS011;3648;50.614;13.830;2023-07-28T09:29:49;1.30;;;0.93;;
7213;SDS011;3648;50.614;13.830;2023-07-28T09:32:18;1.17;;;0.80;;
7213;SDS011;3648;50.614;13.830;2023-07-28T09:35:05;0.97;;;0.73;;
7213;SDS011;3648;50.614;13.830;2023-07-28T09:37:34;3.60;;;0.93;;
7213;SDS011;3648;50.614;13.830;2023-07-28T09:40:04;1.03;;;0.93;;
7213;SDS011;3648;50.614;13.830;2023-07-28T09:42:38;2.90;;;0.90;;
7213;SDS011;3648;50.614;13.830;2023-07-28T09:45:05;0.83;;;0.83;;
7213;SDS011;3648;50.614;13.830;2023-07-28T09:47:33;0.93;;;0.80;;
7213;SDS011;3648;50.614;13.830;2023-07-28T09:50:02;2.33;;;0.60;;
7213;SDS011;3648;50.614;13.830;2023-07-28T09:52:31;2.00;;;0.80;;
7213;SDS011;3648;50.614;13.830;2023-07-28T09:55:02;0.50;;;0.50;;
7213;SDS011;3648;50.614;13.830;2023-07-28T09:57:32;2.50;;;0.73;;
7213;SDS011;3648;50.614;13.830;2023-07-28T10:00:06;0.73;;;0.60;;
7213;SDS011;3648;50.614;13.830;2023-07-28T10:02:35;1.97;;;0.70;;
7213;SDS011;3648;50.614;13.830;2023-07-28T10:05:04;2.80;;;0.80;;
7213;SDS011;3648;50.614;13.830;2023-07-28T10:07:32;1.77;;;0.83;;
7213;SDS011;3648;50.614;13.830;2023-07-28T10:10:00;1.70;;;0.60;;
7213;SDS011;3648;50.614;13.830;2023-07-28T10:12:28;1.53;;;0.60;;
7213;SDS011;3648;50.614;13.830;2023-07-28T10:15:03;1.63;;;0.60;;
7213;SDS011;3648;50.614;13.830;2023-07-28T10:17:30;0.60;;;0.60;;
7213;SDS011;3648;50.614;13.830;2023-07-28T10:20:00;1.03;;;0.67;;
7213;SDS011;3648;50.614;13.830;2023-07-28T10:22:32;0.50;;;0.50;;
7213;SDS011;3648;50.614;13.830;2023-07-28T10:25:01;1.90;;;0.63;;
7213;SDS011;3648;50.614;13.830;2023-07-28T10:27:31;0.57;;;0.43;;
7213;SDS011;3648;50.614;13.830;2023-07-28T10:30:03;2.40;;;0.50;;
7213;SDS011;3648;50.614;13.830;2023-07-28T10:32:37;1.90;;;0.50;;
7213;SDS011;3648;50.614;13.830;2023-07-28T10:35:08;0.63;;;0.57;;
7213;SDS011;3648;50.614;13.830;2023-07-28T10:37:48;1.80;;;0.63;;
7213;SDS011;3648;50.614;13.830;2023-07-28T10:40:22;0.53;;;0.50;;
7213;SDS011;3648;50.614;13.830;2023-07-28T10:42:54;1.93;;;0.70;;
7213;SDS011;3648;50.614;13.830;2023-07-28T10:45:25;0.63;;;0.40;;
7213;SDS011;3648;50.614;13.830;2023-07-28T10:47:54;1.40;;;0.50;;
7213;SDS011;3648;50.614;13.830;2023-07-28T10:50:26;3.60;;;0.60;;
7213;SDS011;3648;50.614;13.830;2023-07-28T10:52:54;0.40;;;0.40;;
7213;SDS011;3648;50.614;13.830;2023-07-28T10:55:21;0.67;;;0.60;;
7213;SDS011;3648;50.614;13.830;2023-07-28T10:57:50;0.40;;;0.40;;
7213;SDS011;3648;50.614;13.830;2023-07-28T11:00:20;0.80;;;0.60;;
7213;SDS011;3648;50.614;13.830;2023-07-28T11:02:50;0.30;;;0.30;;
7213;SDS011;3648;50.614;13.830;2023-07-28T11:05:19;0.47;;;0.47;;
7213;SDS011;3648;50.614;13.830;2023-07-28T11:07:48;0.33;;;0.33;;
7213;SDS011;3648;50.614;13.830;2023-07-28T11:10:15;1.63;;;0.50;;
7213;SDS011;3648;50.614;13.830;2023-07-28T11:12:44;0.40;;;0.40;;
7213;SDS011;3648;50.614;13.830;2023-07-28T11:15:12;0.40;;;0.40;;
7213;SDS011;3648;50.614;13.830;2023-07-28T11:17:42;0.33;;;0.33;;
7213;SDS011;3648;50.614;13.830;2023-07-28T11:20:16;0.50;;;0.50;;
7213;SDS011;3648;50.614;13.830;2023-07-28T11:22:45;0.53;;;0.53;;
7213;SDS011;3648;50.614;13.830;2023-07-28T11:25:13;0.90;;;0.53;;
7213;SDS011;3648;50.614;13.830;2023-07-28T11:27:40;0.60;;;0.50;;
7213;SDS011;3648;50.614;13.830;2023-07-28T11:30:07;0.40;;;0.40;;
7213;SDS011;3648;50.614;13.830;2023-07-28T11:32:39;1.80;;;0.40;;
7213;SDS011;3648;50.614;13.830;2023-07-28T11:35:12;0.50;;;0.40;;
7213;SDS011;3648;50.614;13.830;2023-07-28T11:37:42;0.50;;;0.50;;
7213;SDS011;3648;50.614;13.830;2023-07-28T11:40:10;0.43;;;0.43;;
7213;SDS011;3648;50.614;13.830;2023-07-28T11:42:38;1.13;;;0.70;;
7213;SDS011;3648;50.614;13.830;2023-07-28T11:45:07;3.70;;;0.50;;
7213;SDS011;3648;50.614;13.830;2023-07-28T11:47:35;0.60;;;0.60;;
7213;SDS011;3648;50.614;13.830;2023-07-28T11:50:02;1.13;;;0.50;;
7213;SDS011;3648;50.614;13.830;2023-07-28T11:52:30;1.30;;;0.63;;
7213;SDS011;3648;50.614;13.830;2023-07-28T11:55:00;1.47;;;0.60;;
7213;SDS011;3648;50.614;13.830;2023-07-28T11:57:28;0.60;;;0.50;;
7213;SDS011;3648;50.614;13.830;2023-07-28T11:59:57;0.30;;;0.30;;
7213;SDS011;3648;50.614;13.830;2023-07-28T12:02:25;0.40;;;0.40;;
7213;SDS011;3648;50.614;13.830;2023-07-28T12:04:53;0.80;;;0.40;;
7213;SDS011;3648;50.614;13.830;2023-07-28T12:07:27;0.53;;;0.53;;
7213;SDS011;3648;50.614;13.830;2023-07-28T12:09:55;0.50;;;0.50;;
7213;SDS011;3648;50.614;13.830;2023-07-28T12:12:26;1.53;;;0.60;;
7213;SDS011;3648;50.614;13.830;2023-07-28T12:14:55;0.50;;;0.50;;
7213;SDS011;3648;50.614;13.830;2023-07-28T12:17:24;0.50;;;0.50;;
7213;SDS011;3648;50.614;13.830;2023-07-28T12:20:01;0.43;;;0.43;;
7213;SDS011;3648;50.614;13.830;2023-07-28T12:22:36;0.57;;;0.57;;
7213;SDS011;3648;50.614;13.830;2023-07-28T12:25:04;0.77;;;0.70;;
7213;SDS011;3648;50.614;13.830;2023-07-28T12:27:33;2.90;;;0.60;;
7213;SDS011;3648;50.614;13.830;2023-07-28T12:30:01;0.30;;;0.30;;
7213;SDS011;3648;50.614;13.830;2023-07-28T12:32:29;1.03;;;0.50;;
7213;SDS011;3648;50.614;13.830;2023-07-28T12:34:57;0.47;;;0.47;;
7213;SDS011;3648;50.614;13.830;2023-07-28T12:37:24;2.47;;;0.50;;
7213;SDS011;3648;50.614;13.830;2023-07-28T12:39:51;0.30;;;0.30;;
7213;SDS011;3648;50.614;13.830;2023-07-28T12:42:19;0.40;;;0.40;;
7213;SDS011;3648;50.614;13.830;2023-07-28T12:44:47;0.47;;;0.47;;
7213;SDS011;3648;50.614;13.830;2023-07-28T12:47:15;2.20;;;0.60;;
7213;SDS011;3648;50.614;13.830;2023-07-28T12:49:42;1.37;;;0.50;;
7213;SDS011;3648;50.614;13.830;2023-07-28T12:52:09;0.50;;;0.50;;
7213;SDS011;3648;50.614;13.830;2023-07-28T12:54:37;0.63;;;0.47;;
7213;SDS011;3648;50.614;13.830;2023-07-28T12:57:05;6.23;;;0.63;;
7213;SDS011;3648;50.614;13.830;2023-07-28T12:59:34;0.83;;;0.60;;
7213;SDS011;3648;50.614;13.830;2023-07-28T13:02:03;0.47;;;0.47;;
7213;SDS011;3648;50.614;13.830;2023-07-28T13:04:30;0.50;;;0.50;;
7213;SDS011;3648;50.614;13.830;2023-07-28T13:06:57;0.67;;;0.60;;
7213;SDS011;3648;50.614;13.830;2023-07-28T13:09:24;0.50;;;0.50;;
7213;SDS011;3648;50.614;13.830;2023-07-28T13:11:50;1.07;;;0.70;;
7213;SDS011;3648;50.614;13.830;2023-07-28T13:14:18;0.50;;;0.50;;
7213;SDS011;3648;50.614;13.830;2023-07-28T13:16:45;0.50;;;0.50;;
7213;SDS011;3648;50.614;13.830;2023-07-28T13:19:13;0.60;;;0.57;;
7213;SDS011;3648;50.614;13.830;2023-07-28T13:21:40;0.50;;;0.50;;
7213;SDS011;3648;50.614;13.830;2023-07-28T13:24:07;0.57;;;0.57;;
7213;SDS011;3648;50.614;13.830;2023-07-28T13:26:34;0.80;;;0.63;;
7213;SDS011;3648;50.614;13.830;2023-07-28T13:29:01;0.50;;;0.50;;
7213;SDS011;3648;50.614;13.830;2023-07-28T13:31:32;1.00;;;0.50;;
7213;SDS011;3648;50.614;13.830;2023-07-28T13:33:59;0.60;;;0.50;;
7213;SDS011;3648;50.614;13.830;2023-07-28T13:36:28;0.70;;;0.60;;
7213;SDS011;3648;50.614;13.830;2023-07-28T13:38:55;1.73;;;0.63;;
7213;SDS011;3648;50.614;13.830;2023-07-28T13:41:21;0.60;;;0.60;;
7213;SDS011;3648;50.614;13.830;2023-07-28T13:43:49;0.50;;;0.50;;
7213;SDS011;3648;50.614;13.830;2023-07-28T13:46:16;0.53;;;0.50;;
7213;SDS011;3648;50.614;13.830;2023-07-28T13:48:43;1.03;;;0.50;;
7213;SDS011;3648;50.614;13.830;2023-07-28T13:51:10;1.63;;;0.57;;
7213;SDS011;3648;50.614;13.830;2023-07-28T13:53:39;0.60;;;0.60;;
7213;SDS011;3648;50.614;13.830;2023-07-28T13:56:06;0.70;;;0.57;;
7213;SDS011;3648;50.614;13.830;2023-07-28T13:58:34;0.40;;;0.40;;
7213;SDS011;3648;50.614;13.830;2023-07-28T14:01:02;0.47;;;0.47;;
7213;SDS011;3648;50.614;13.830;2023-07-28T14:03:29;0.53;;;0.53;;
7213;SDS011;3648;50.614;13.830;2023-07-28T14:05:56;0.63;;;0.60;;
7213;SDS011;3648;50.614;13.830;2023-07-28T14:08:23;0.60;;;0.60;;
7213;SDS011;3648;50.614;13.830;2023-07-28T14:10:52;0.50;;;0.50;;
7213;SDS011;3648;50.614;13.830;2023-07-28T14:13:19;0.60;;;0.50;;
7213;SDS011;3648;50.614;13.830;2023-07-28T14:15:46;0.60;;;0.50;;
7213;SDS011;3648;50.614;13.830;2023-07-28T14:18:13;0.40;;;0.40;;
7213;SDS011;3648;50.614;13.830;2023-07-28T14:20:40;0.40;;;0.37;;
7213;SDS011;3648;50.614;13.830;2023-07-28T14:23:20;0.40;;;0.40;;
7213;SDS011;3648;50.614;13.830;2023-07-28T14:25:48;0.53;;;0.53;;
7213;SDS011;3648;50.614;13.830;2023-07-28T14:28:17;0.50;;;0.50;;
7213;SDS011;3648;50.614;13.830;2023-07-28T14:30:44;0.50;;;0.50;;
7213;SDS011;3648;50.614;13.830;2023-07-28T14:33:12;0.50;;;0.50;;
7213;SDS011;3648;50.614;13.830;2023-07-28T14:35:40;0.53;;;0.53;;
7213;SDS011;3648;50.614;13.830;2023-07-28T14:38:07;0.60;;;0.60;;
7213;SDS011;3648;50.614;13.830;2023-07-28T14:40:35;0.60;;;0.60;;
7213;SDS011;3648;50.614;13.830;2023-07-28T14:43:02;0.50;;;0.50;;
7213;SDS011;3648;50.614;13.830;2023-07-28T14:45:31;0.70;;;0.70;;
7213;SDS011;3648;50.614;13.830;2023-07-28T14:47:58;0.50;;;0.50;;
7213;SDS011;3648;50.614;13.830;2023-07-28T14:50:25;0.90;;;0.70;;
7213;SDS011;3648;50.614;13.830;2023-07-28T14:52:53;0.50;;;0.50;;
7213;SDS011;3648;50.614;13.830;2023-07-28T14:55:20;1.00;;;0.60;;
7213;SDS011;3648;50.614;13.830;2023-07-28T14:57:47;1.83;;;0.70;;
7213;SDS011;3648;50.614;13.830;2023-07-28T15:00:14;0.60;;;0.60;;
7213;SDS011;3648;50.614;13.830;2023-07-28T15:02:42;9.33;;;1.00;;
7213;SDS011;3648;50.614;13.830;2023-07-28T15:05:10;0.87;;;0.57;;